Eems Servant — PBTI — position and weather

sailwx.info

Track history (hours):
 
Tides and Currents Weather Stations Pressure Air Temp Water Temp Dewpoint Dewpoint Depression Visibility Wind Speed Wind Dir Waves Ship Positions

Eems Servant

Last reported at 2017-Jun-24 03:50 UTC. Time now 2017-Jun-24 10:38 UTC.
Position N 51°47' E 003°17'.

Length 87 m; draft 3.4 m.

Type: Cargo ship. MMSI: 246236000.

Date/timePositionNaut miles runAvg speedWind from/ knotsBaromVisibWave heightAir tempDewpointWater temp
2017-Jun-24 03:50N 51°47' E 003°17'0 0.0
2017-Jun-24 03:30N 51°47' E 003°17'0 0.0
2017-Jun-24 03:00N 51°47' E 003°17'0 0.0
2017-Jun-24 02:30N 51°47' E 003°17'8 7.7
2017-Jun-24 01:30N 51°40' E 003°19'18 7.1
2017-Jun-23 23:01N 51°26' E 003°37'1 6.9
2017-Jun-23 22:53N 51°25' E 003°38'3 6.9
2017-Jun-23 22:30N 51°24' E 003°42'4 8.0
2017-Jun-23 22:00N 51°21' E 003°47'2 3.9
2017-Jun-23 21:30N 51°20' E 003°49'0 0.5
2017-Jun-23 21:00N 51°20' E 003°49'2 3.6
2017-Jun-23 20:29N 51°18' E 003°50'2 3.1
2017-Jun-23 19:57N 51°17' E 003°51'0 0.0
2017-Jun-23 18:06N 51°17' E 003°51'0 0.0
2017-Jun-23 15:48N 51°17' E 003°51'0 0.0
2017-Jun-23 15:18N 51°17' E 003°51'0 0.0
2017-Jun-23 12:54N 51°17' E 003°51'0 0.0
2017-Jun-23 12:30N 51°17' E 003°51'0 0.0
2017-Jun-23 08:24N 51°17' E 003°51'0 0.0
2017-Jun-23 06:00N 51°17' E 003°51'0 0.0
2017-Jun-23 05:24N 51°17' E 003°51'0 0.0
2017-Jun-23 05:00N 51°17' E 003°51'0 0.0
2017-Jun-23 04:30N 51°17' E 003°51'0 0.0
2017-Jun-23 04:00N 51°17' E 003°51'0 0.0
2017-Jun-23 03:18N 51°17' E 003°51'0 0.0
2017-Jun-23 02:24N 51°17' E 003°51'0 0.0
2017-Jun-23 01:24N 51°17' E 003°51'0 0.0
2017-Jun-23 00:36N 51°17' E 003°51'0 0.0
2017-Jun-22 23:24N 51°17' E 003°51'0 0.0
2017-Jun-22 23:00N 51°17' E 003°51'0 0.0
2017-Jun-22 18:24N 51°17' E 003°51'0 0.0
2017-Jun-22 17:42N 51°17' E 003°51'0 0.0
2017-Jun-22 17:12N 51°17' E 003°51'0 0.0
2017-Jun-22 17:00N 51°17' E 003°51'0 0.0
2017-Jun-22 15:36N 51°17' E 003°51'0 0.9
2017-Jun-22 15:30N 51°17' E 003°51'2 4.1
2017-Jun-22 15:00N 51°19' E 003°50'1 1.3
2017-Jun-22 14:30N 51°19' E 003°49'0 0.0
2017-Jun-22 13:30N 51°19' E 003°49'0 0.0
2017-Jun-22 13:00N 51°19' E 003°49'0 0.0
2017-Jun-22 12:24N 51°19' E 003°49'0 0.0
2017-Jun-22 11:54N 51°19' E 003°49'0 0.0
2017-Jun-22 11:30N 51°19' E 003°49'0 0.0
2017-Jun-22 11:00N 51°19' E 003°49'0 0.0
2017-Jun-22 10:30N 51°19' E 003°49'0 0.0
2017-Jun-22 10:00N 51°19' E 003°49'0 0.0
2017-Jun-22 09:24N 51°19' E 003°49'0 0.0
2017-Jun-22 08:48N 51°19' E 003°49'0 0.0
2017-Jun-22 08:30N 51°19' E 003°49'0 0.0
2017-Jun-22 08:00N 51°19' E 003°49'0 0.0
2017-Jun-22 07:30N 51°19' E 003°49'0 0.0
2017-Jun-22 06:54N 51°19' E 003°49'0 0.0
2017-Jun-22 06:06N 51°19' E 003°49'0 0.0
2017-Jun-22 06:00N 51°19' E 003°49'0 0.0
2017-Jun-22 04:48N 51°19' E 003°49'0 0.0
2017-Jun-22 04:24N 51°19' E 003°49'0 0.0
2017-Jun-22 03:54N 51°19' E 003°49'0 0.0
2017-Jun-22 03:24N 51°19' E 003°49'0 0.0
2017-Jun-22 03:00N 51°19' E 003°49'0 0.0
2017-Jun-22 02:24N 51°19' E 003°49'0 0.0
2017-Jun-22 02:00N 51°19' E 003°49'0 0.0
2017-Jun-22 01:30N 51°19' E 003°49'0 0.0
2017-Jun-22 00:54N 51°19' E 003°49'0 0.0
2017-Jun-22 00:30N 51°19' E 003°49'0 0.0
2017-Jun-21 23:54N 51°19' E 003°49'0 0.0
2017-Jun-21 23:18N 51°19' E 003°49'0 0.0
2017-Jun-21 23:00N 51°19' E 003°49'0 0.0
2017-Jun-21 22:30N 51°19' E 003°49'0 0.0
2017-Jun-21 21:42N 51°19' E 003°49'0 0.0
2017-Jun-21 21:30N 51°19' E 003°49'0 0.0
2017-Jun-21 21:00N 51°19' E 003°49'0 0.0
2017-Jun-21 20:30N 51°19' E 003°49'0 0.0
2017-Jun-21 20:00N 51°19' E 003°49'0 0.0
2017-Jun-21 19:18N 51°19' E 003°49'0 0.0
2017-Jun-21 18:42N 51°19' E 003°49'0 0.0
2017-Jun-21 18:30N 51°19' E 003°49'0 0.0
2017-Jun-21 18:00N 51°19' E 003°49'1 1.2
2017-Jun-21 17:30N 51°20' E 003°49'0 0.0
2017-Jun-21 17:00N 51°20' E 003°49'1 2.5
2017-Jun-21 16:30N 51°21' E 003°48'2 4.5
2017-Jun-21 16:00N 51°22' E 003°45'3 5.7
2017-Jun-21 15:27N 51°24' E 003°41'3 6.1
2017-Jun-21 15:00N 51°25' E 003°37'3 5.4
2017-Jun-21 14:26N 51°27' E 003°33'19 6.3
2017-Jun-21 11:30N 51°42' E 003°16'40 9.1
2017-Jun-21 07:07N 52°16' E 002°43'1 9.4
2017-Jun-21 07:00N 52°17' E 002°42'3310.2
2017-Jun-21 03:45N 52°46' E 002°14'4 9.8
2017-Jun-21 03:23N 52°49' E 002°11'4 9.6
2017-Jun-21 03:00N 52°52' E 002°09'286 9.2
2017-Jun-19 19:49N 57°02' W 001°55'3 9.8
2017-Jun-19 19:30N 57°04' W 001°58'5 9.6
2017-Jun-19 19:00N 57°09' W 002°02'2 3.4
2017-Jun-19 18:29N 57°09' W 002°05'0 0.0
2017-Jun-19 17:59N 57°09' W 002°05'0 0.0
2017-Jun-19 17:29N 57°09' W 002°05'0 0.0
2017-Jun-19 16:59N 57°09' W 002°05'0 0.0
2017-Jun-19 16:26N 57°09' W 002°05'0 0.0
2017-Jun-19 15:59N 57°09' W 002°05'0 0.0
2017-Jun-19 15:29N 57°09' W 002°05'0 0.0
2017-Jun-19 14:59N 57°09' W 002°05'0 0.0
2017-Jun-19 13:59N 57°09' W 002°05'0 0.0
2017-Jun-19 13:29N 57°09' W 002°05'0 0.0
2017-Jun-19 12:59N 57°09' W 002°05'0 0.0
2017-Jun-19 12:29N 57°09' W 002°05'0 0.0
2017-Jun-19 11:59N 57°09' W 002°05'0 0.0
2017-Jun-19 11:29N 57°09' W 002°05'0 0.0
2017-Jun-19 10:59N 57°09' W 002°05'0 0.0
2017-Jun-19 10:29N 57°09' W 002°05'0 0.0
2017-Jun-19 09:59N 57°09' W 002°05'0 0.0
2017-Jun-19 09:29N 57°09' W 002°05'0 0.0
2017-Jun-19 08:59N 57°09' W 002°05'0 0.0
2017-Jun-19 08:29N 57°09' W 002°05'0 0.0
2017-Jun-19 07:59N 57°09' W 002°05'0 0.0
2017-Jun-19 07:29N 57°09' W 002°05'0 0.0
2017-Jun-19 06:59N 57°09' W 002°05'0 0.0
2017-Jun-19 06:29N 57°09' W 002°05'0 0.0
2017-Jun-19 05:59N 57°09' W 002°05'0 0.0
2017-Jun-19 05:29N 57°09' W 002°05'0 0.0
2017-Jun-19 04:59N 57°09' W 002°05'0 0.0
2017-Jun-19 04:29N 57°09' W 002°05'0 0.0
2017-Jun-19 03:59N 57°09' W 002°05'0 0.0
2017-Jun-19 03:29N 57°09' W 002°05'0 0.0
2017-Jun-19 02:59N 57°09' W 002°05'0 0.0
2017-Jun-19 02:29N 57°09' W 002°05'0 0.0
2017-Jun-19 01:59N 57°09' W 002°05'0 0.0
2017-Jun-19 01:29N 57°09' W 002°05'0 0.0
2017-Jun-19 00:59N 57°09' W 002°05'0 0.0
2017-Jun-19 00:29N 57°09' W 002°05'0 0.0
2017-Jun-18 23:59N 57°09' W 002°05'0 0.0
2017-Jun-18 23:29N 57°09' W 002°05'0 0.0
2017-Jun-18 22:59N 57°09' W 002°05'0 0.0
2017-Jun-18 22:29N 57°09' W 002°05'0 0.0
2017-Jun-18 21:59N 57°09' W 002°05'0 0.0
2017-Jun-18 21:29N 57°09' W 002°05'0 0.0
2017-Jun-18 20:59N 57°09' W 002°05'0 0.0
2017-Jun-18 20:29N 57°09' W 002°05'0 0.0
2017-Jun-18 19:59N 57°09' W 002°05'0 0.0
2017-Jun-18 19:29N 57°09' W 002°05'0 0.0
2017-Jun-18 18:59N 57°09' W 002°05'0 0.0
2017-Jun-18 18:29N 57°09' W 002°05'0 0.0
2017-Jun-18 17:59N 57°09' W 002°05'0 0.0
2017-Jun-18 17:29N 57°09' W 002°05'0 0.0
2017-Jun-18 16:59N 57°09' W 002°05'0 0.0
2017-Jun-18 16:29N 57°09' W 002°05'0 0.0
2017-Jun-18 15:59N 57°09' W 002°05'0 0.0
2017-Jun-18 15:29N 57°09' W 002°05'0 0.0
2017-Jun-18 15:00N 57°09' W 002°05'1 1.8
2017-Jun-18 14:30N 57°09' W 002°03'2 4.5
2017-Jun-18 14:00N 57°11' W 002°01'2 3.2
2017-Jun-18 13:31N 57°12' W 002°02'0 0.1
2017-Jun-18 13:00N 57°12' W 002°02'0 0.0
2017-Jun-18 12:30N 57°12' W 002°02'0 0.0
2017-Jun-18 12:00N 57°12' W 002°02'0 0.0
2017-Jun-18 11:18N 57°12' W 002°02'0 0.0
2017-Jun-18 11:00N 57°12' W 002°02'0 0.0
2017-Jun-18 10:30N 57°12' W 002°02'0 0.0
2017-Jun-18 09:54N 57°12' W 002°02'0 0.0
2017-Jun-18 09:30N 57°12' W 002°02'0 0.0
2017-Jun-18 08:51N 57°12' W 002°02'0 0.0
2017-Jun-18 08:30N 57°12' W 002°02'0 0.1
2017-Jun-18 08:00N 57°12' W 002°02'0 0.1
2017-Jun-18 07:30N 57°12' W 002°02'0 0.0
2017-Jun-18 07:00N 57°12' W 002°02'0 0.0
2017-Jun-18 06:30N 57°12' W 002°02'0 0.0
2017-Jun-18 06:00N 57°12' W 002°02'0 0.1
2017-Jun-18 05:30N 57°12' W 002°02'0 0.1
2017-Jun-18 05:00N 57°12' W 002°02'0 0.0
2017-Jun-18 04:30N 57°12' W 002°02'0 0.0
2017-Jun-18 04:00N 57°12' W 002°02'0 0.0
2017-Jun-18 03:30N 57°12' W 002°02'0 0.0
2017-Jun-18 03:00N 57°12' W 002°02'0 0.0
2017-Jun-18 02:30N 57°12' W 002°02'0 0.0
2017-Jun-18 02:00N 57°12' W 002°02'0 0.0
2017-Jun-18 01:30N 57°12' W 002°02'0 0.0
2017-Jun-18 00:57N 57°12' W 002°02'0 0.0
2017-Jun-18 00:27N 57°12' W 002°02'0 0.0
2017-Jun-18 00:00N 57°12' W 002°02'0 0.0
2017-Jun-17 23:30N 57°12' W 002°02'0 0.0
2017-Jun-17 22:57N 57°12' W 002°02'0 0.0
2017-Jun-17 22:30N 57°12' W 002°02'0 0.0
2017-Jun-17 22:00N 57°12' W 002°02'0 0.0
2017-Jun-17 21:30N 57°12' W 002°02'0 0.0
2017-Jun-17 21:00N 57°12' W 002°02'0 0.0
2017-Jun-17 20:30N 57°12' W 002°02'0 0.1
2017-Jun-17 20:00N 57°12' W 002°02'0 0.1
2017-Jun-17 19:30N 57°12' W 002°02'0 0.0
2017-Jun-17 19:00N 57°12' W 002°02'0 0.0
2017-Jun-17 18:30N 57°12' W 002°02'0 0.0
2017-Jun-17 18:00N 57°12' W 002°02'0 0.0
2017-Jun-17 17:30N 57°12' W 002°02'0 0.2
2017-Jun-17 17:00N 57°12' W 002°02'0 0.1
2017-Jun-17 16:30N 57°12' W 002°02'0 0.1
2017-Jun-17 16:00N 57°12' W 002°02'0 0.0
2017-Jun-17 15:30N 57°12' W 002°02'0 0.0
2017-Jun-17 15:00N 57°12' W 002°02'1 1.2
2017-Jun-17 14:00N 57°13' W 002°00'27 6.9
2017-Jun-17 10:10N 57°39' W 001°47'1 7.3
2017-Jun-17 10:00N 57°40' W 001°48'5 8.1
2017-Jun-17 09:27N 57°43' W 001°53'60 9.3
2017-Jun-17 02:56N 58°35' W 002°53'612.3
2017-Jun-17 02:28N 58°40' W 002°59'1111.8
2017-Jun-17 01:30N 58°43' W 003°20'510.6
2017-Jun-17 00:59N 58°42' W 003°31'510.3
2017-Jun-17 00:30N 58°42' W 003°40'510.2
2017-Jun-17 00:00N 58°42' W 003°50'510.4
2017-Jun-16 23:30N 58°41' W 004°00'193 7.2
2017-Jun-15 20:52N 55°50' W 006°45'3 6.7
2017-Jun-15 20:29N 55°48' W 006°43'3 7.2
2017-Jun-15 20:00N 55°45' W 006°40'5 8.2
2017-Jun-15 19:26N 55°41' W 006°36'4 8.2
2017-Jun-15 19:00N 55°38' W 006°33'4 8.6
2017-Jun-15 18:30N 55°35' W 006°28'4 9.0
2017-Jun-15 18:00N 55°31' W 006°23'5 9.2
2017-Jun-15 17:30N 55°28' W 006°18'5 8.9
2017-Jun-15 16:59N 55°26' W 006°11'4 9.2
2017-Jun-15 16:30N 55°25' W 006°03'5 9.0
2017-Jun-15 16:00N 55°21' W 005°58'31 8.0
2017-Jun-15 12:06N 54°53' W 005°35'1 8.2
2017-Jun-15 11:58N 54°51' W 005°34'4 7.9
2017-Jun-15 11:30N 54°48' W 005°32'4 7.3
2017-Jun-15 11:00N 54°45' W 005°29'3 6.8
2017-Jun-15 10:30N 54°42' W 005°28'3 6.4
2017-Jun-15 10:00N 54°38' W 005°26'4 7.9
2017-Jun-15 09:30N 54°35' W 005°25'4 8.4
2017-Jun-15 09:00N 54°31' W 005°23'4 8.6
2017-Jun-15 08:30N 54°26' W 005°21'4 8.2
2017-Jun-15 07:58N 54°22' W 005°23'4 9.1
2017-Jun-15 07:29N 54°19' W 005°28'5 8.9
2017-Jun-15 06:54N 54°15' W 005°34'4 9.0
2017-Jun-15 06:30N 54°12' W 005°38'4 8.9
2017-Jun-15 06:00N 54°09' W 005°44'4 8.8
2017-Jun-15 05:30N 54°06' W 005°49'5 8.7
2017-Jun-15 04:57N 54°03' W 005°55'8 8.9
2017-Jun-15 04:01N 53°57' W 006°05'0 8.9
2017-Jun-15 03:59N 53°57' W 006°05'  
Track history (hours):
 
Tides and Currents Weather Stations Pressure Air Temp Water Temp Dewpoint Dewpoint Depression Visibility Wind Speed Wind Dir Waves Ship Positions

Eems Servant

Last reported at 2017-Jun-24 03:50 UTC. Time now 2017-Jun-24 10:38 UTC.
Position N 51°47' E 003°17'.

Length 87 m; draft 3.4 m.

Type: Cargo ship. MMSI: 246236000.

Date/timePositionNaut miles runAvg speedWind from/ knotsBaromVisibWave heightAir tempDewpointWater temp
2017-Jun-24 03:50N 51°47' E 003°17'0 0.0
2017-Jun-24 03:30N 51°47' E 003°17'0 0.0
2017-Jun-24 03:00N 51°47' E 003°17'0 0.0
2017-Jun-24 02:30N 51°47' E 003°17'8 7.7
2017-Jun-24 01:30N 51°40' E 003°19'18 7.1
2017-Jun-23 23:01N 51°26' E 003°37'1 6.9
2017-Jun-23 22:53N 51°25' E 003°38'3 6.9
2017-Jun-23 22:30N 51°24' E 003°42'4 8.0
2017-Jun-23 22:00N 51°21' E 003°47'2 3.9
2017-Jun-23 21:30N 51°20' E 003°49'0 0.5
2017-Jun-23 21:00N 51°20' E 003°49'2 3.6
2017-Jun-23 20:29N 51°18' E 003°50'2 3.1
2017-Jun-23 19:57N 51°17' E 003°51'0 0.0
2017-Jun-23 18:06N 51°17' E 003°51'0 0.0
2017-Jun-23 15:48N 51°17' E 003°51'0 0.0
2017-Jun-23 15:18N 51°17' E 003°51'0 0.0
2017-Jun-23 12:54N 51°17' E 003°51'0 0.0
2017-Jun-23 12:30N 51°17' E 003°51'0 0.0
2017-Jun-23 08:24N 51°17' E 003°51'0 0.0
2017-Jun-23 06:00N 51°17' E 003°51'0 0.0
2017-Jun-23 05:24N 51°17' E 003°51'0 0.0
2017-Jun-23 05:00N 51°17' E 003°51'0 0.0
2017-Jun-23 04:30N 51°17' E 003°51'0 0.0
2017-Jun-23 04:00N 51°17' E 003°51'0 0.0
2017-Jun-23 03:18N 51°17' E 003°51'0 0.0
2017-Jun-23 02:24N 51°17' E 003°51'0 0.0
2017-Jun-23 01:24N 51°17' E 003°51'0 0.0
2017-Jun-23 00:36N 51°17' E 003°51'0 0.0
2017-Jun-22 23:24N 51°17' E 003°51'0 0.0
2017-Jun-22 23:00N 51°17' E 003°51'0 0.0
2017-Jun-22 18:24N 51°17' E 003°51'0 0.0
2017-Jun-22 17:42N 51°17' E 003°51'0 0.0
2017-Jun-22 17:12N 51°17' E 003°51'0 0.0
2017-Jun-22 17:00N 51°17' E 003°51'0 0.0
2017-Jun-22 15:36N 51°17' E 003°51'0 0.9
2017-Jun-22 15:30N 51°17' E 003°51'2 4.1
2017-Jun-22 15:00N 51°19' E 003°50'1 1.3
2017-Jun-22 14:30N 51°19' E 003°49'0 0.0
2017-Jun-22 13:30N 51°19' E 003°49'0 0.0
2017-Jun-22 13:00N 51°19' E 003°49'0 0.0
2017-Jun-22 12:24N 51°19' E 003°49'0 0.0
2017-Jun-22 11:54N 51°19' E 003°49'0 0.0
2017-Jun-22 11:30N 51°19' E 003°49'0 0.0
2017-Jun-22 11:00N 51°19' E 003°49'0 0.0
2017-Jun-22 10:30N 51°19' E 003°49'0 0.0
2017-Jun-22 10:00N 51°19' E 003°49'0 0.0
2017-Jun-22 09:24N 51°19' E 003°49'0 0.0
2017-Jun-22 08:48N 51°19' E 003°49'0 0.0
2017-Jun-22 08:30N 51°19' E 003°49'0 0.0
2017-Jun-22 08:00N 51°19' E 003°49'0 0.0
2017-Jun-22 07:30N 51°19' E 003°49'0 0.0
2017-Jun-22 06:54N 51°19' E 003°49'0 0.0
2017-Jun-22 06:06N 51°19' E 003°49'0 0.0
2017-Jun-22 06:00N 51°19' E 003°49'0 0.0
2017-Jun-22 04:48N 51°19' E 003°49'0 0.0
2017-Jun-22 04:24N 51°19' E 003°49'0 0.0
2017-Jun-22 03:54N 51°19' E 003°49'0 0.0
2017-Jun-22 03:24N 51°19' E 003°49'0 0.0
2017-Jun-22 03:00N 51°19' E 003°49'0 0.0
2017-Jun-22 02:24N 51°19' E 003°49'0 0.0
2017-Jun-22 02:00N 51°19' E 003°49'0 0.0
2017-Jun-22 01:30N 51°19' E 003°49'0 0.0
2017-Jun-22 00:54N 51°19' E 003°49'0 0.0
2017-Jun-22 00:30N 51°19' E 003°49'0 0.0
2017-Jun-21 23:54N 51°19' E 003°49'0 0.0
2017-Jun-21 23:18N 51°19' E 003°49'0 0.0
2017-Jun-21 23:00N 51°19' E 003°49'0 0.0
2017-Jun-21 22:30N 51°19' E 003°49'0 0.0
2017-Jun-21 21:42N 51°19' E 003°49'0 0.0
2017-Jun-21 21:30N 51°19' E 003°49'0 0.0
2017-Jun-21 21:00N 51°19' E 003°49'0 0.0
2017-Jun-21 20:30N 51°19' E 003°49'0 0.0
2017-Jun-21 20:00N 51°19' E 003°49'0 0.0
2017-Jun-21 19:18N 51°19' E 003°49'0 0.0
2017-Jun-21 18:42N 51°19' E 003°49'0 0.0
2017-Jun-21 18:30N 51°19' E 003°49'0 0.0
2017-Jun-21 18:00N 51°19' E 003°49'1 1.2
2017-Jun-21 17:30N 51°20' E 003°49'0 0.0
2017-Jun-21 17:00N 51°20' E 003°49'1 2.5
2017-Jun-21 16:30N 51°21' E 003°48'2 4.5
2017-Jun-21 16:00N 51°22' E 003°45'3 5.7
2017-Jun-21 15:27N 51°24' E 003°41'3 6.1
2017-Jun-21 15:00N 51°25' E 003°37'3 5.4
2017-Jun-21 14:26N 51°27' E 003°33'19 6.3
2017-Jun-21 11:30N 51°42' E 003°16'40 9.1
2017-Jun-21 07:07N 52°16' E 002°43'1 9.4
2017-Jun-21 07:00N 52°17' E 002°42'3310.2
2017-Jun-21 03:45N 52°46' E 002°14'4 9.8
2017-Jun-21 03:23N 52°49' E 002°11'4 9.6
2017-Jun-21 03:00N 52°52' E 002°09'286 9.2
2017-Jun-19 19:49N 57°02' W 001°55'3 9.8
2017-Jun-19 19:30N 57°04' W 001°58'5 9.6
2017-Jun-19 19:00N 57°09' W 002°02'2 3.4
2017-Jun-19 18:29N 57°09' W 002°05'0 0.0
2017-Jun-19 17:59N 57°09' W 002°05'0 0.0
2017-Jun-19 17:29N 57°09' W 002°05'0 0.0
2017-Jun-19 16:59N 57°09' W 002°05'0 0.0
2017-Jun-19 16:26N 57°09' W 002°05'0 0.0
2017-Jun-19 15:59N 57°09' W 002°05'0 0.0
2017-Jun-19 15:29N 57°09' W 002°05'0 0.0
2017-Jun-19 14:59N 57°09' W 002°05'0 0.0
2017-Jun-19 13:59N 57°09' W 002°05'0 0.0
2017-Jun-19 13:29N 57°09' W 002°05'0 0.0
2017-Jun-19 12:59N 57°09' W 002°05'0 0.0
2017-Jun-19 12:29N 57°09' W 002°05'0 0.0
2017-Jun-19 11:59N 57°09' W 002°05'0 0.0
2017-Jun-19 11:29N 57°09' W 002°05'0 0.0
2017-Jun-19 10:59N 57°09' W 002°05'0 0.0
2017-Jun-19 10:29N 57°09' W 002°05'0 0.0
2017-Jun-19 09:59N 57°09' W 002°05'0 0.0
2017-Jun-19 09:29N 57°09' W 002°05'0 0.0
2017-Jun-19 08:59N 57°09' W 002°05'0 0.0
2017-Jun-19 08:29N 57°09' W 002°05'0 0.0
2017-Jun-19 07:59N 57°09' W 002°05'0 0.0
2017-Jun-19 07:29N 57°09' W 002°05'0 0.0
2017-Jun-19 06:59N 57°09' W 002°05'0 0.0
2017-Jun-19 06:29N 57°09' W 002°05'0 0.0
2017-Jun-19 05:59N 57°09' W 002°05'0 0.0
2017-Jun-19 05:29N 57°09' W 002°05'0 0.0
2017-Jun-19 04:59N 57°09' W 002°05'0 0.0
2017-Jun-19 04:29N 57°09' W 002°05'0 0.0
2017-Jun-19 03:59N 57°09' W 002°05'0 0.0
2017-Jun-19 03:29N 57°09' W 002°05'0 0.0
2017-Jun-19 02:59N 57°09' W 002°05'0 0.0
2017-Jun-19 02:29N 57°09' W 002°05'0 0.0
2017-Jun-19 01:59N 57°09' W 002°05'0 0.0
2017-Jun-19 01:29N 57°09' W 002°05'0 0.0
2017-Jun-19 00:59N 57°09' W 002°05'0 0.0
2017-Jun-19 00:29N 57°09' W 002°05'0 0.0
2017-Jun-18 23:59N 57°09' W 002°05'0 0.0
2017-Jun-18 23:29N 57°09' W 002°05'0 0.0
2017-Jun-18 22:59N 57°09' W 002°05'0 0.0
2017-Jun-18 22:29N 57°09' W 002°05'0 0.0
2017-Jun-18 21:59N 57°09' W 002°05'0 0.0
2017-Jun-18 21:29N 57°09' W 002°05'0 0.0
2017-Jun-18 20:59N 57°09' W 002°05'0 0.0
2017-Jun-18 20:29N 57°09' W 002°05'0 0.0
2017-Jun-18 19:59N 57°09' W 002°05'0 0.0
2017-Jun-18 19:29N 57°09' W 002°05'0 0.0
2017-Jun-18 18:59N 57°09' W 002°05'0 0.0
2017-Jun-18 18:29N 57°09' W 002°05'0 0.0
2017-Jun-18 17:59N 57°09' W 002°05'0 0.0
2017-Jun-18 17:29N 57°09' W 002°05'0 0.0
2017-Jun-18 16:59N 57°09' W 002°05'0 0.0
2017-Jun-18 16:29N 57°09' W 002°05'0 0.0
2017-Jun-18 15:59N 57°09' W 002°05'0 0.0
2017-Jun-18 15:29N 57°09' W 002°05'0 0.0
2017-Jun-18 15:00N 57°09' W 002°05'1 1.8
2017-Jun-18 14:30N 57°09' W 002°03'2 4.5
2017-Jun-18 14:00N 57°11' W 002°01'2 3.2
2017-Jun-18 13:31N 57°12' W 002°02'0 0.1
2017-Jun-18 13:00N 57°12' W 002°02'0 0.0
2017-Jun-18 12:30N 57°12' W 002°02'0 0.0
2017-Jun-18 12:00N 57°12' W 002°02'0 0.0
2017-Jun-18 11:18N 57°12' W 002°02'0 0.0
2017-Jun-18 11:00N 57°12' W 002°02'0 0.0
2017-Jun-18 10:30N 57°12' W 002°02'0 0.0
2017-Jun-18 09:54N 57°12' W 002°02'0 0.0
2017-Jun-18 09:30N 57°12' W 002°02'0 0.0
2017-Jun-18 08:51N 57°12' W 002°02'0 0.0
2017-Jun-18 08:30N 57°12' W 002°02'0 0.1
2017-Jun-18 08:00N 57°12' W 002°02'0 0.1
2017-Jun-18 07:30N 57°12' W 002°02'0 0.0
2017-Jun-18 07:00N 57°12' W 002°02'0 0.0
2017-Jun-18 06:30N 57°12' W 002°02'0 0.0
2017-Jun-18 06:00N 57°12' W 002°02'0 0.1
2017-Jun-18 05:30N 57°12' W 002°02'0 0.1
2017-Jun-18 05:00N 57°12' W 002°02'0 0.0
2017-Jun-18 04:30N 57°12' W 002°02'0 0.0
2017-Jun-18 04:00N 57°12' W 002°02'0 0.0
2017-Jun-18 03:30N 57°12' W 002°02'0 0.0
2017-Jun-18 03:00N 57°12' W 002°02'0 0.0
2017-Jun-18 02:30N 57°12' W 002°02'0 0.0
2017-Jun-18 02:00N 57°12' W 002°02'0 0.0
2017-Jun-18 01:30N 57°12' W 002°02'0 0.0
2017-Jun-18 00:57N 57°12' W 002°02'0 0.0
2017-Jun-18 00:27N 57°12' W 002°02'0 0.0
2017-Jun-18 00:00N 57°12' W 002°02'0 0.0
2017-Jun-17 23:30N 57°12' W 002°02'0 0.0
2017-Jun-17 22:57N 57°12' W 002°02'0 0.0
2017-Jun-17 22:30N 57°12' W 002°02'0 0.0
2017-Jun-17 22:00N 57°12' W 002°02'0 0.0
2017-Jun-17 21:30N 57°12' W 002°02'0 0.0
2017-Jun-17 21:00N 57°12' W 002°02'0 0.0
2017-Jun-17 20:30N 57°12' W 002°02'0 0.1
2017-Jun-17 20:00N 57°12' W 002°02'0 0.1
2017-Jun-17 19:30N 57°12' W 002°02'0 0.0
2017-Jun-17 19:00N 57°12' W 002°02'0 0.0
2017-Jun-17 18:30N 57°12' W 002°02'0 0.0
2017-Jun-17 18:00N 57°12' W 002°02'0 0.0
2017-Jun-17 17:30N 57°12' W 002°02'0 0.2
2017-Jun-17 17:00N 57°12' W 002°02'0 0.1
2017-Jun-17 16:30N 57°12' W 002°02'0 0.1
2017-Jun-17 16:00N 57°12' W 002°02'0 0.0
2017-Jun-17 15:30N 57°12' W 002°02'0 0.0
2017-Jun-17 15:00N 57°12' W 002°02'1 1.2
2017-Jun-17 14:00N 57°13' W 002°00'27 6.9
2017-Jun-17 10:10N 57°39' W 001°47'1 7.3
2017-Jun-17 10:00N 57°40' W 001°48'5 8.1
2017-Jun-17 09:27N 57°43' W 001°53'60 9.3
2017-Jun-17 02:56N 58°35' W 002°53'612.3
2017-Jun-17 02:28N 58°40' W 002°59'1111.8
2017-Jun-17 01:30N 58°43' W 003°20'510.6
2017-Jun-17 00:59N 58°42' W 003°31'510.3
2017-Jun-17 00:30N 58°42' W 003°40'510.2
2017-Jun-17 00:00N 58°42' W 003°50'510.4
2017-Jun-16 23:30N 58°41' W 004°00'193 7.2
2017-Jun-15 20:52N 55°50' W 006°45'3 6.7
2017-Jun-15 20:29N 55°48' W 006°43'3 7.2
2017-Jun-15 20:00N 55°45' W 006°40'5 8.2
2017-Jun-15 19:26N 55°41' W 006°36'4 8.2
2017-Jun-15 19:00N 55°38' W 006°33'4 8.6
2017-Jun-15 18:30N 55°35' W 006°28'4 9.0
2017-Jun-15 18:00N 55°31' W 006°23'5 9.2
2017-Jun-15 17:30N 55°28' W 006°18'5 8.9
2017-Jun-15 16:59N 55°26' W 006°11'4 9.2
2017-Jun-15 16:30N 55°25' W 006°03'5 9.0
2017-Jun-15 16:00N 55°21' W 005°58'31 8.0
2017-Jun-15 12:06N 54°53' W 005°35'1 8.2
2017-Jun-15 11:58N 54°51' W 005°34'4 7.9
2017-Jun-15 11:30N 54°48' W 005°32'4 7.3
2017-Jun-15 11:00N 54°45' W 005°29'3 6.8
2017-Jun-15 10:30N 54°42' W 005°28'3 6.4
2017-Jun-15 10:00N 54°38' W 005°26'4 7.9
2017-Jun-15 09:30N 54°35' W 005°25'4 8.4
2017-Jun-15 09:00N 54°31' W 005°23'4 8.6
2017-Jun-15 08:30N 54°26' W 005°21'4 8.2
2017-Jun-15 07:58N 54°22' W 005°23'4 9.1
2017-Jun-15 07:29N 54°19' W 005°28'5 8.9
2017-Jun-15 06:54N 54°15' W 005°34'4 9.0
2017-Jun-15 06:30N 54°12' W 005°38'4 8.9
2017-Jun-15 06:00N 54°09' W 005°44'4 8.8
2017-Jun-15 05:30N 54°06' W 005°49'5 8.7
2017-Jun-15 04:57N 54°03' W 005°55'8 8.9
2017-Jun-15 04:01N 53°57' W 006°05'0 8.9
2017-Jun-15 03:59N 53°57' W 006°05'  

Dump ship's entire track history